createdAt,value
2019-05-06T00:01:35.790Z,99.90
2019-05-06T00:04:05.101Z,99.90
2019-05-06T00:06:34.708Z,99.90
2019-05-06T00:09:05.574Z,99.90
2019-05-06T00:11:34.879Z,99.90
2019-05-06T00:14:04.249Z,99.90
2019-05-06T00:16:34.671Z,99.90
2019-05-06T00:19:04.824Z,99.90
2019-05-06T00:21:35.617Z,99.90
2019-05-06T00:24:05.181Z,99.90
2019-05-06T00:26:57.671Z,99.90
2019-05-06T00:29:29.216Z,99.90
2019-05-06T00:31:58.319Z,99.90
2019-05-06T00:34:27.394Z,99.90
2019-05-06T00:36:56.501Z,99.90
2019-05-06T00:39:50.475Z,99.90
2019-05-06T00:42:38.599Z,99.90
2019-05-06T00:45:08.307Z,99.90
2019-05-06T00:47:37.501Z,99.90
2019-05-06T00:50:09.785Z,99.90
2019-05-06T00:52:38.939Z,99.90
2019-05-06T00:55:08.227Z,99.90
2019-05-06T00:57:46.251Z,99.90
2019-05-06T01:00:17.711Z,99.90
2019-05-06T01:02:46.790Z,99.90
2019-05-06T01:05:16.303Z,99.90
2019-05-06T01:07:45.461Z,99.90
2019-05-06T01:10:15.966Z,99.90
2019-05-06T01:12:52.015Z,99.90
2019-05-06T01:15:23.859Z,99.90
2019-05-06T01:17:53.858Z,99.90
2019-05-06T01:20:24.736Z,99.90
2019-05-06T01:22:54.448Z,99.90
2019-05-06T01:25:23.795Z,99.90
2019-05-06T01:27:54.052Z,99.90
2019-05-06T01:30:24.607Z,99.90
2019-05-06T01:32:54.382Z,99.90
2019-05-06T01:35:24.538Z,99.90
2019-05-06T01:38:14.567Z,99.90
2019-05-06T01:41:20.345Z,99.90
2019-05-06T01:43:49.520Z,99.90
2019-05-06T01:46:18.593Z,99.90
2019-05-06T01:48:47.680Z,99.90
2019-05-06T01:51:17.681Z,99.90
2019-05-06T01:53:46.779Z,99.90
2019-05-06T01:56:15.955Z,99.90
2019-05-06T01:58:45.343Z,99.90
2019-05-06T02:01:14.928Z,99.90
2019-05-06T02:03:46.906Z,99.90
2019-05-06T02:06:16.062Z,99.90
2019-05-06T02:08:45.875Z,99.90
2019-05-06T02:11:15.096Z,99.90
2019-05-06T02:13:44.437Z,99.90
2019-05-06T02:16:14.648Z,99.90
2019-05-06T02:18:44.812Z,99.90
2019-05-06T02:21:20.002Z,99.90
2019-05-06T02:23:54.115Z,99.90
2019-05-06T02:26:23.930Z,99.90
2019-05-06T02:28:55.179Z,99.90
2019-05-06T02:31:42.166Z,99.90
2019-05-06T02:34:29.306Z,99.90
2019-05-06T02:37:20.470Z,99.90
2019-05-06T02:39:49.583Z,99.90
2019-05-06T02:42:18.762Z,99.90
2019-05-06T02:44:47.840Z,99.90
2019-05-06T02:47:27.006Z,99.90
2019-05-06T02:49:59.482Z,99.90
2019-05-06T02:52:28.570Z,99.90
2019-05-06T02:54:57.640Z,99.90
2019-05-06T02:57:26.771Z,99.90
2019-05-06T02:59:55.961Z,99.90
2019-05-06T03:02:38.076Z,99.90
2019-05-06T03:04:56.055Z,99.90
2019-05-06T03:07:25.170Z,99.90
2019-05-06T03:09:54.284Z,99.90
2019-05-06T03:12:23.395Z,99.90
2019-05-06T03:14:53.191Z,99.90
2019-05-06T03:17:23.534Z,99.90
2019-05-06T03:19:54.715Z,99.90
2019-05-06T03:22:34.459Z,99.90
2019-05-06T03:25:07.927Z,99.90
2019-05-06T03:27:37.014Z,99.90
2019-05-06T03:30:06.677Z,99.90
2019-05-06T03:32:41.372Z,99.90
2019-05-06T03:35:25.060Z,99.90
2019-05-06T03:37:37.997Z,99.90
2019-05-06T03:40:07.559Z,99.90
2019-05-06T03:42:36.631Z,99.90
2019-05-06T03:45:13.558Z,99.90
2019-05-06T03:47:50.385Z,99.90
2019-05-06T03:50:19.510Z,99.90
2019-05-06T03:52:48.608Z,99.90
2019-05-06T03:55:17.705Z,99.90
2019-05-06T03:57:49.016Z,99.90
2019-05-06T04:00:18.187Z,99.90
2019-05-06T04:02:47.296Z,99.90
2019-05-06T04:05:16.473Z,99.90
2019-05-06T04:07:46.284Z,99.90
2019-05-06T04:10:15.566Z,99.90
2019-05-06T04:12:45.369Z,99.90
2019-05-06T04:15:14.580Z,99.90
2019-05-06T04:17:53.946Z,99.90
2019-05-06T04:20:39.234Z,99.90
2019-05-06T04:23:16.748Z,99.90
2019-05-06T04:25:57.432Z,99.90
2019-05-06T04:28:29.626Z,99.90
2019-05-06T04:30:58.845Z,99.90
2019-05-06T04:33:27.953Z,99.90
2019-05-06T04:35:57.042Z,99.90
2019-05-06T04:38:26.967Z,99.90
2019-05-06T04:40:56.074Z,99.90
2019-05-06T04:43:26.804Z,99.90
2019-05-06T04:45:56.344Z,99.90
2019-05-06T04:48:25.568Z,99.90
2019-05-06T04:50:54.780Z,99.90
2019-05-06T04:53:27.100Z,99.90
2019-05-06T04:55:54.889Z,99.90
2019-05-06T04:58:23.976Z,99.90
2019-05-06T05:00:53.322Z,99.90
2019-05-06T05:03:23.073Z,99.90
2019-05-06T05:05:53.024Z,99.90
2019-05-06T05:08:26.316Z,99.90
2019-05-06T05:11:03.379Z,99.90
2019-05-06T05:14:07.010Z,99.90
2019-05-06T05:16:52.741Z,99.90
2019-05-06T05:19:23.035Z,99.90
2019-05-06T05:21:55.560Z,99.90
2019-05-06T05:24:24.674Z,99.90
2019-05-06T05:26:53.754Z,99.90
2019-05-06T05:29:23.666Z,99.90
2019-05-06T05:31:53.080Z,99.90
2019-05-06T05:34:22.577Z,99.90
2019-05-06T05:36:53.207Z,99.90
2019-05-06T05:39:22.349Z,99.90
2019-05-06T05:41:53.062Z,99.90
2019-05-06T05:44:25.920Z,99.90
2019-05-06T05:46:55.037Z,99.90
2019-05-06T05:49:29.349Z,99.90
2019-05-06T05:51:58.784Z,99.90
2019-05-06T05:54:27.996Z,99.90
2019-05-06T05:56:57.112Z,99.90
2019-05-06T05:59:26.330Z,99.90
2019-05-06T06:01:55.455Z,99.90
2019-05-06T06:04:24.528Z,99.90
2019-05-06T06:06:53.618Z,99.90
2019-05-06T06:09:25.362Z,99.90
2019-05-06T06:11:56.794Z,99.90
2019-05-06T06:14:56.166Z,99.90
2019-05-06T06:17:47.145Z,99.90
2019-05-06T06:20:34.356Z,99.90
2019-05-06T06:23:09.200Z,99.90
2019-05-06T06:25:38.986Z,99.90
2019-05-06T06:28:08.072Z,99.90
2019-05-06T06:30:45.270Z,99.90
2019-05-06T06:33:14.380Z,99.90
2019-05-06T06:35:53.627Z,99.90
2019-05-06T06:38:26.654Z,99.90
2019-05-06T06:40:55.829Z,99.90
2019-05-06T06:43:27.054Z,99.90
2019-05-06T06:45:56.127Z,99.90
2019-05-06T06:48:27.870Z,99.90
2019-05-06T06:50:56.235Z,99.90
2019-05-06T06:53:25.507Z,99.90
2019-05-06T06:56:14.646Z,99.90
2019-05-06T06:59:02.653Z,99.90
2019-05-06T07:01:37.483Z,99.90
2019-05-06T07:04:13.295Z,99.90
2019-05-06T07:06:53.126Z,99.90
2019-05-06T07:09:23.186Z,99.90
2019-05-06T07:11:52.648Z,99.90
2019-05-06T07:14:22.643Z,99.90
2019-05-06T07:16:53.328Z,99.90
2019-05-06T07:19:34.245Z,99.90
2019-05-06T07:22:06.530Z,99.90
2019-05-06T07:24:34.175Z,99.90
2019-05-06T07:27:14.521Z,99.90
2019-05-06T07:29:48.143Z,99.90
2019-05-06T07:32:14.463Z,99.90
2019-05-06T07:34:43.632Z,99.90
2019-05-06T07:37:12.749Z,99.90
2019-05-06T07:39:43.030Z,99.90
2019-05-06T07:42:18.241Z,99.90
2019-05-06T07:44:55.673Z,99.90
2019-05-06T07:47:43.867Z,99.90
2019-05-06T07:50:13.294Z,99.90
2019-05-06T07:53:06.010Z,99.90
2019-05-06T07:55:35.569Z,99.90
2019-05-06T07:58:05.263Z,99.90
2019-05-06T08:00:34.665Z,99.90
2019-05-06T08:03:03.736Z,99.90
2019-05-06T08:05:32.819Z,99.90
2019-05-06T08:08:03.434Z,99.90
2019-05-06T08:10:33.314Z,99.90
2019-05-06T08:13:02.965Z,99.90
2019-05-06T08:15:32.758Z,99.90
2019-05-06T08:18:03.528Z,99.90
2019-05-06T08:20:39.174Z,99.90
2019-05-06T08:23:17.751Z,99.90
2019-05-06T08:25:49.109Z,99.90
2019-05-06T08:28:18.178Z,99.90
2019-05-06T08:30:47.466Z,99.90
2019-05-06T08:33:16.527Z,99.90
2019-05-06T08:35:45.617Z,99.90
2019-05-06T08:38:14.687Z,99.90
2019-05-06T08:40:43.772Z,99.90
2019-05-06T08:43:13.197Z,99.90
2019-05-06T08:45:42.551Z,99.90
2019-05-06T08:48:13.060Z,99.90
2019-05-06T08:50:48.835Z,99.90
2019-05-06T08:53:24.229Z,99.90
2019-05-06T08:55:53.528Z,99.90
2019-05-06T08:58:43.144Z,99.90
2019-05-06T09:01:14.732Z,99.90
2019-05-06T09:03:43.881Z,99.90
2019-05-06T09:06:27.017Z,99.90
2019-05-06T09:08:43.881Z,99.90
2019-05-06T09:11:12.954Z,99.90
2019-05-06T09:13:42.865Z,99.90
2019-05-06T09:16:13.053Z,99.90
2019-05-06T09:18:42.509Z,99.90
2019-05-06T09:21:12.272Z,99.90
2019-05-06T09:23:42.435Z,99.90
2019-05-06T09:26:13.735Z,99.90
2019-05-06T09:28:52.945Z,99.90
2019-05-06T09:31:24.739Z,99.10
2019-05-06T09:33:59.395Z,99.90
2019-05-06T09:36:41.236Z,99.90
2019-05-06T09:38:59.325Z,93.60
2019-05-06T09:41:28.486Z,83.50
2019-05-06T09:43:57.576Z,77.90
2019-05-06T09:46:26.673Z,86.50
2019-05-06T09:49:07.865Z,89.60
2019-05-06T09:51:36.961Z,90.30
2019-05-06T09:54:15.298Z,87.60
2019-05-06T09:56:48.983Z,85.70
2019-05-06T09:59:18.079Z,84.70
2019-05-06T10:01:47.157Z,86.10
2019-05-06T10:04:16.276Z,88.70
2019-05-06T10:06:56.183Z,89.00
2019-05-06T10:09:16.637Z,91.20
2019-05-06T10:11:45.897Z,92.70
2019-05-06T10:14:14.988Z,84.10
2019-05-06T10:16:44.089Z,78.80
2019-05-06T10:19:13.466Z,73.70
2019-05-06T10:21:42.838Z,76.10
2019-05-06T10:24:12.088Z,75.40
2019-05-06T10:26:46.093Z,75.00
2019-05-06T10:29:26.041Z,75.90
2019-05-06T10:32:23.370Z,75.60
2019-05-06T10:34:52.770Z,75.30
2019-05-06T10:37:36.923Z,77.90
2019-05-06T10:40:18.445Z,77.60
2019-05-06T10:42:57.092Z,77.60
2019-05-06T10:45:32.617Z,77.10
2019-05-06T10:48:02.478Z,76.10
2019-05-06T10:50:35.707Z,72.90
2019-05-06T10:53:18.687Z,71.30
2019-05-06T10:56:02.141Z,68.10
2019-05-06T10:58:32.590Z,70.50
2019-05-06T11:01:14.162Z,68.50
2019-05-06T11:03:43.262Z,68.60
2019-05-06T11:06:13.199Z,65.80
2019-05-06T11:08:42.447Z,64.10
2019-05-06T11:11:16.936Z,64.20
2019-05-06T11:13:42.456Z,62.30
2019-05-06T11:16:12.946Z,62.00
2019-05-06T11:18:42.619Z,59.90
2019-05-06T11:21:12.801Z,58.70
2019-05-06T11:23:45.963Z,56.20
2019-05-06T11:26:15.192Z,55.80
2019-05-06T11:28:57.659Z,53.60
2019-05-06T11:31:33.246Z,55.10
2019-05-06T11:34:37.153Z,53.50
2019-05-06T11:37:19.437Z,54.70
2019-05-06T11:39:48.567Z,56.10
2019-05-06T11:42:28.034Z,56.70
2019-05-06T11:44:48.560Z,55.40
2019-05-06T11:47:17.800Z,55.80
2019-05-06T11:49:48.563Z,57.10
2019-05-06T11:52:17.673Z,57.90
2019-05-06T11:54:47.590Z,58.30
2019-05-06T11:57:16.681Z,55.90
2019-05-06T11:59:45.794Z,52.60
2019-05-06T12:02:17.866Z,52.20
2019-05-06T12:04:47.020Z,51.30
2019-05-06T12:07:16.349Z,51.50
2019-05-06T12:09:45.582Z,52.60
2019-05-06T12:12:14.714Z,51.60
2019-05-06T12:14:43.884Z,50.90
2019-05-06T12:17:13.120Z,51.20
2019-05-06T12:19:43.278Z,52.20
2019-05-06T12:22:12.729Z,52.60
2019-05-06T12:24:43.047Z,50.60
2019-05-06T12:27:15.429Z,52.20
2019-05-06T12:29:44.600Z,53.00
2019-05-06T12:32:26.814Z,51.50
2019-05-06T12:34:55.916Z,52.00
2019-05-06T12:37:26.671Z,51.90
2019-05-06T12:39:58.098Z,49.90
2019-05-06T12:42:34.102Z,51.80
2019-05-06T12:45:28.244Z,53.20
2019-05-06T12:48:13.077Z,55.20
2019-05-06T12:50:43.067Z,52.30
2019-05-06T12:53:13.274Z,48.50
2019-05-06T12:55:43.162Z,47.90
2019-05-06T12:58:13.687Z,48.90
2019-05-06T13:00:44.951Z,50.80
2019-05-06T13:03:13.885Z,50.60
2019-05-06T13:05:42.997Z,48.40
2019-05-06T13:08:19.046Z,48.90
2019-05-06T13:10:42.930Z,48.60
2019-05-06T13:13:33.218Z,49.00
2019-05-06T13:16:02.821Z,49.20
2019-05-06T13:18:32.815Z,49.60
2019-05-06T13:21:06.070Z,50.00
2019-05-06T13:23:41.169Z,50.50
2019-05-06T13:26:12.683Z,51.20
2019-05-06T13:28:44.548Z,50.90
2019-05-06T13:31:20.695Z,51.30
2019-05-06T13:33:55.713Z,50.70
2019-05-06T13:36:25.028Z,51.50
2019-05-06T13:39:09.472Z,51.60
2019-05-06T13:41:24.994Z,49.20
2019-05-06T13:44:03.519Z,47.50
2019-05-06T13:46:35.639Z,48.30
2019-05-06T13:49:39.022Z,49.00
2019-05-06T13:52:12.557Z,49.20
2019-05-06T13:54:42.344Z,49.50
2019-05-06T13:57:12.482Z,50.00
2019-05-06T13:59:44.140Z,50.10
2019-05-06T14:02:34.644Z,50.00
2019-05-06T14:05:04.514Z,48.60
2019-05-06T14:07:34.466Z,48.70
2019-05-06T14:10:04.579Z,48.70
2019-05-06T14:12:33.716Z,50.00
2019-05-06T14:15:04.319Z,48.20
2019-05-06T14:17:33.680Z,48.70
2019-05-06T14:20:02.862Z,49.60
2019-05-06T14:22:34.026Z,49.00
2019-05-06T14:25:18.466Z,48.90
2019-05-06T14:27:52.437Z,45.80
2019-05-06T14:30:42.695Z,44.60
2019-05-06T14:33:12.667Z,46.60
2019-05-06T14:35:43.123Z,46.50
2019-05-06T14:38:13.582Z,45.90
2019-05-06T14:41:26.111Z,47.10
2019-05-06T14:43:51.406Z,47.50
2019-05-06T14:46:22.808Z,48.50
2019-05-06T14:48:53.455Z,48.10
2019-05-06T14:51:22.432Z,46.10
2019-05-06T14:53:53.037Z,47.60
2019-05-06T14:56:47.236Z,47.20
2019-05-06T14:59:16.396Z,48.00
2019-05-06T15:01:45.900Z,49.60
2019-05-06T15:04:15.067Z,50.10
2019-05-06T15:06:44.146Z,50.80
2019-05-06T15:09:13.540Z,50.20
2019-05-06T15:11:43.392Z,49.90
2019-05-06T15:14:13.216Z,49.80
2019-05-06T15:16:42.458Z,49.80
2019-05-06T15:19:12.857Z,50.70
2019-05-06T15:21:42.891Z,50.00
2019-05-06T15:24:13.764Z,49.70
2019-05-06T15:26:42.950Z,49.00
2019-05-06T15:29:12.714Z,49.60
2019-05-06T15:32:02.361Z,49.60
2019-05-06T15:35:02.687Z,50.20
2019-05-06T15:37:42.503Z,50.00
2019-05-06T15:40:12.223Z,50.10
2019-05-06T15:42:42.471Z,50.00
2019-05-06T15:45:12.606Z,50.30
2019-05-06T15:47:42.764Z,50.70
2019-05-06T15:50:12.781Z,51.50
2019-05-06T15:52:43.475Z,52.10
2019-05-06T15:55:13.084Z,52.90
2019-05-06T15:57:43.474Z,52.00
2019-05-06T16:00:16.479Z,51.90
2019-05-06T16:02:45.575Z,52.80
2019-05-06T16:05:19.846Z,53.60
2019-05-06T16:07:45.538Z,54.50
2019-05-06T16:10:16.039Z,54.90
2019-05-06T16:12:47.958Z,55.10
2019-05-06T16:15:17.251Z,55.00
2019-05-06T16:17:46.429Z,54.40
2019-05-06T16:20:15.631Z,54.50
2019-05-06T16:22:46.627Z,54.40
2019-05-06T16:25:16.064Z,55.10
2019-05-06T16:27:50.534Z,54.70
2019-05-06T16:30:19.092Z,55.30
2019-05-06T16:32:48.229Z,56.80
2019-05-06T16:35:17.507Z,57.50
2019-05-06T16:37:47.906Z,58.00
2019-05-06T16:40:19.557Z,58.50
2019-05-06T16:42:48.656Z,58.50
2019-05-06T16:45:19.385Z,58.40
2019-05-06T16:47:48.562Z,59.00
2019-05-06T16:50:18.372Z,59.60
2019-05-06T16:52:47.485Z,59.60
2019-05-06T16:55:21.285Z,60.20
2019-05-06T16:57:56.589Z,60.70
2019-05-06T17:00:28.076Z,62.10
2019-05-06T17:03:18.162Z,61.20
2019-05-06T17:06:24.615Z,60.40
2019-05-06T17:08:53.800Z,61.00
2019-05-06T17:11:30.563Z,60.10
2019-05-06T17:13:53.774Z,60.80
2019-05-06T17:16:22.898Z,60.60
2019-05-06T17:18:56.519Z,61.30
2019-05-06T17:21:22.901Z,61.50
2019-05-06T17:23:52.319Z,62.00
2019-05-06T17:26:22.535Z,62.40
2019-05-06T17:29:16.762Z,62.40
2019-05-06T17:31:53.128Z,63.00
2019-05-06T17:34:26.275Z,64.00
2019-05-06T17:36:58.056Z,63.40
2019-05-06T17:39:27.191Z,64.20
2019-05-06T17:41:56.357Z,64.30
2019-05-06T17:44:25.424Z,64.60
2019-05-06T17:47:12.190Z,65.00
2019-05-06T17:49:42.226Z,64.70
2019-05-06T17:52:22.426Z,65.30
2019-05-06T17:54:52.812Z,65.80
2019-05-06T17:57:22.476Z,66.00
2019-05-06T17:59:52.853Z,67.20
2019-05-06T18:02:23.599Z,67.60
2019-05-06T18:04:53.398Z,68.50
2019-05-06T18:07:22.695Z,69.00
2019-05-06T18:09:52.328Z,69.80
2019-05-06T18:12:23.224Z,70.20
2019-05-06T18:14:53.377Z,71.00
2019-05-06T18:17:22.671Z,71.60
2019-05-06T18:19:51.733Z,72.60
2019-05-06T18:22:39.946Z,72.90
2019-05-06T18:25:09.094Z,73.30
2019-05-06T18:27:38.176Z,73.70
2019-05-06T18:30:17.801Z,74.00
2019-05-06T18:32:38.097Z,74.50
2019-05-06T18:35:07.319Z,75.00
2019-05-06T18:37:37.875Z,75.70
2019-05-06T18:40:06.966Z,76.70
2019-05-06T18:42:38.125Z,77.00
2019-05-06T18:45:07.263Z,77.90
2019-05-06T18:47:36.710Z,79.00
2019-05-06T18:50:06.053Z,79.50
2019-05-06T18:52:35.229Z,80.20
2019-05-06T18:55:04.658Z,81.80
2019-05-06T18:57:33.756Z,83.20
2019-05-06T19:00:03.306Z,84.20
2019-05-06T19:02:32.452Z,85.20
2019-05-06T19:05:14.181Z,86.70
2019-05-06T19:07:43.670Z,87.90
2019-05-06T19:10:32.748Z,89.90
2019-05-06T19:13:01.983Z,90.60
2019-05-06T19:15:32.886Z,91.00
2019-05-06T19:18:02.362Z,91.80
2019-05-06T19:20:33.840Z,92.50
2019-05-06T19:23:02.463Z,93.40
2019-05-06T19:25:34.321Z,93.90
2019-05-06T19:28:02.503Z,94.50
2019-05-06T19:30:32.400Z,94.90
2019-05-06T19:33:03.058Z,95.50
2019-05-06T19:35:36.577Z,96.00
2019-05-06T19:38:05.283Z,96.80
2019-05-06T19:40:34.013Z,97.40
2019-05-06T19:43:03.110Z,98.30
2019-05-06T19:45:34.447Z,99.10
2019-05-06T19:48:03.111Z,99.90
2019-05-06T19:50:33.055Z,99.90
2019-05-06T19:53:02.412Z,99.90
2019-05-06T19:55:31.523Z,99.90
2019-05-06T19:58:02.327Z,99.90
2019-05-06T20:00:32.595Z,99.90
2019-05-06T20:03:02.757Z,99.90
2019-05-06T20:05:38.080Z,99.90
2019-05-06T20:08:32.543Z,99.90
2019-05-06T20:11:26.899Z,99.90
2019-05-06T20:13:56.093Z,99.90
2019-05-06T20:16:25.178Z,99.90
2019-05-06T20:18:54.263Z,99.90
2019-05-06T20:21:23.376Z,99.90
2019-05-06T20:23:52.718Z,99.90
2019-05-06T20:26:22.100Z,99.90
2019-05-06T20:28:52.618Z,99.90
2019-05-06T20:31:22.627Z,99.90
2019-05-06T20:33:52.823Z,99.90
2019-05-06T20:36:22.574Z,99.90
2019-05-06T20:38:51.857Z,99.90
2019-05-06T20:41:22.200Z,99.90
2019-05-06T20:43:51.434Z,99.90
2019-05-06T20:46:22.003Z,99.90
2019-05-06T20:48:52.957Z,99.90
2019-05-06T20:51:22.266Z,99.90
2019-05-06T20:53:51.363Z,99.90
2019-05-06T20:56:21.984Z,99.90
2019-05-06T20:58:52.871Z,99.90
2019-05-06T21:01:22.092Z,99.90
2019-05-06T21:03:52.832Z,99.90
2019-05-06T21:06:22.592Z,99.90
2019-05-06T21:08:53.526Z,99.90
2019-05-06T21:11:28.845Z,99.90
2019-05-06T21:13:54.370Z,99.90
2019-05-06T21:16:23.512Z,99.90
2019-05-06T21:18:52.672Z,99.90
2019-05-06T21:21:21.847Z,99.90
2019-05-06T21:23:52.401Z,99.90
2019-05-06T21:26:22.140Z,99.90
2019-05-06T21:28:52.266Z,99.90
2019-05-06T21:31:21.391Z,99.90
2019-05-06T21:33:52.193Z,99.90
2019-05-06T21:36:23.004Z,99.90
2019-05-06T21:38:52.417Z,99.90
2019-05-06T21:41:22.129Z,99.90
2019-05-06T21:43:51.389Z,99.90
2019-05-06T21:46:20.479Z,99.90
2019-05-06T21:48:49.603Z,99.90
2019-05-06T21:51:18.719Z,99.90
2019-05-06T21:53:47.835Z,99.90
2019-05-06T21:56:16.919Z,99.90
2019-05-06T21:58:46.093Z,99.90
2019-05-06T22:01:15.226Z,99.90
2019-05-06T22:03:44.334Z,99.90
2019-05-06T22:06:13.398Z,99.90
2019-05-06T22:08:43.034Z,99.90
2019-05-06T22:11:12.127Z,99.90
2019-05-06T22:13:42.514Z,99.90
2019-05-06T22:16:12.376Z,99.90
2019-05-06T22:18:43.282Z,99.90
2019-05-06T22:21:37.906Z,99.90
2019-05-06T22:24:07.658Z,99.90
2019-05-06T22:26:36.782Z,99.90
2019-05-06T22:29:05.895Z,99.90
2019-05-06T22:31:34.964Z,99.90
2019-05-06T22:34:04.034Z,99.90
2019-05-06T22:36:33.136Z,99.90
2019-05-06T22:39:02.562Z,99.90
2019-05-06T22:41:32.615Z,99.90
2019-05-06T22:44:13.372Z,99.90
2019-05-06T22:46:33.022Z,99.90
2019-05-06T22:49:02.598Z,99.90
2019-05-06T22:51:32.451Z,99.90
2019-05-06T22:54:02.684Z,99.90
2019-05-06T22:56:32.617Z,99.90
2019-05-06T22:59:03.203Z,99.90
2019-05-06T23:02:10.118Z,99.90
2019-05-06T23:04:40.275Z,99.90
2019-05-06T23:07:09.354Z,99.90
2019-05-06T23:09:38.437Z,99.90
2019-05-06T23:12:07.522Z,99.90
2019-05-06T23:14:37.362Z,99.90
2019-05-06T23:17:06.644Z,99.90
2019-05-06T23:19:35.732Z,99.90
2019-05-06T23:22:05.122Z,99.90
2019-05-06T23:24:35.585Z,99.90
2019-05-06T23:27:04.686Z,99.90
2019-05-06T23:29:36.520Z,99.90
2019-05-06T23:32:05.714Z,99.90
2019-05-06T23:34:38.428Z,99.90
2019-05-06T23:37:25.924Z,99.90
2019-05-06T23:40:39.681Z,99.90
2019-05-06T23:43:44.974Z,99.90
2019-05-06T23:46:52.572Z,99.90
2019-05-06T23:49:57.482Z,99.90
2019-05-06T23:53:03.092Z,99.90
2019-05-06T23:56:08.060Z,99.90
2019-05-06T23:58:37.152Z,99.90
